EFW36VL EGKK-LGTS
Flight info
| Callsign | EFW36VL |
|---|---|
| Flight time | 2h 47m |
| Altitude | 33000 |
| Route | MIMFO Y312 DVR UL9 KONAN UL607 REMBA M624 DIK M150 KRH DCT UTABA L607 MOMUK DCT UMVEG DCT VEKEN/N0450F350 DCT NEMEK DCT TUPUS DCT MEDUX UM867 KOGAT DCT PEP DCT TALAS N130 ALIKO |
| Aircraft | A321/M-SDE3FGHIRWY/LB1 |
Departure
| Time | 2026-04-15 07:51 |
|---|---|
| Airport | London Gatwick Airport (EGKK) |
Arrival
| Time | 2026-04-15 10:39 |
|---|---|
| Airport | Thessaloniki Macedonia International Airport (LGTS) |
| Time | Latitude | Longitude | Altitude | Speed | Heading |
|---|---|---|---|---|---|
| 2026-04-15 07:33 | 51.15480 | -0.17027 | 214 ft | 0 kts | 348° |
| 2026-04-15 07:44 | 51.15474 | -0.17025 | 216 ft | 2 kts | 348° |
| 2026-04-15 07:44 | 51.15455 | -0.17018 | 208 ft | 3 kts | 348° |
| 2026-04-15 07:44 | 51.15436 | -0.17012 | 214 ft | 3 kts | 7° |
| 2026-04-15 07:44 | 51.15423 | -0.17021 | 214 ft | 3 kts | 65° |
| 2026-04-15 07:45 | 51.15419 | -0.17038 | 215 ft | 2 kts | 77° |
| 2026-04-15 07:45 | 51.15416 | -0.17063 | 209 ft | 1 kts | 77° |
| 2026-04-15 07:45 | 51.15415 | -0.17067 | 209 ft | 0 kts | 77° |
| 2026-04-15 07:47 | 51.15415 | -0.17066 | 209 ft | 0 kts | 77° |
| 2026-04-15 07:47 | 51.15419 | -0.17037 | 213 ft | 7 kts | 77° |
| 2026-04-15 07:48 | 51.15435 | -0.16925 | 207 ft | 11 kts | 77° |
| 2026-04-15 07:48 | 51.15452 | -0.16798 | 211 ft | 12 kts | 82° |
| 2026-04-15 07:48 | 51.15403 | -0.16729 | 205 ft | 11 kts | 199° |
| 2026-04-15 07:48 | 51.15347 | -0.16801 | 207 ft | 11 kts | 191° |
| 2026-04-15 07:49 | 51.15295 | -0.16815 | 208 ft | 0 kts | 190° |
| 2026-04-15 07:49 | 51.15290 | -0.16816 | 206 ft | 3 kts | 188° |
| 2026-04-15 07:49 | 51.15236 | -0.16809 | 209 ft | 12 kts | 169° |
| 2026-04-15 07:50 | 51.15141 | -0.16800 | 205 ft | 15 kts | 205° |
| 2026-04-15 07:50 | 51.15114 | -0.16865 | 208 ft | 0 kts | 255° |
| 2026-04-15 07:50 | 51.15113 | -0.16872 | 209 ft | 4 kts | 255° |
| 2026-04-15 07:50 | 51.15063 | -0.17222 | 204 ft | 68 kts | 257° |
| 2026-04-15 07:51 | 51.14914 | -0.18303 | 208 ft | 130 kts | 258° |
| 2026-04-15 07:51 | 51.14682 | -0.19995 | 228 ft | 178 kts | 257° |
| 2026-04-15 07:51 | 51.14419 | -0.21945 | 840 ft | 180 kts | 255° |
| 2026-04-15 07:51 | 51.14167 | -0.23890 | 1556 ft | 183 kts | 253° |
| 2026-04-15 07:52 | 51.13890 | -0.25971 | 1727 ft | 202 kts | 253° |
| 2026-04-15 07:52 | 51.13583 | -0.28224 | 2082 ft | 211 kts | 255° |
| 2026-04-15 07:52 | 51.13347 | -0.30564 | 2609 ft | 218 kts | 266° |
| 2026-04-15 07:52 | 51.13643 | -0.32965 | 3229 ft | 227 kts | 288° |
| 2026-04-15 07:53 | 51.14538 | -0.35040 | 3867 ft | 236 kts | 312° |
| 2026-04-15 07:53 | 51.15976 | -0.36437 | 4479 ft | 246 kts | 338° |
| 2026-04-15 07:53 | 51.17681 | -0.36711 | 5023 ft | 255 kts | 6° |
| 2026-04-15 07:53 | 51.19339 | -0.35700 | 5540 ft | 259 kts | 36° |
| 2026-04-15 07:54 | 51.20540 | -0.33594 | 6033 ft | 259 kts | 65° |
| 2026-04-15 07:54 | 51.21018 | -0.30875 | 6518 ft | 254 kts | 93° |
| 2026-04-15 07:54 | 51.20817 | -0.28107 | 7022 ft | 251 kts | 105° |
| 2026-04-15 07:54 | 51.20502 | -0.25354 | 7542 ft | 253 kts | 106° |
| 2026-04-15 07:55 | 51.20206 | -0.22573 | 8075 ft | 258 kts | 99° |
| 2026-04-15 07:55 | 51.20386 | -0.19683 | 8480 ft | 269 kts | 84° |
| 2026-04-15 07:55 | 51.21183 | -0.13400 | 9032 ft | 301 kts | 82° |
| 2026-04-15 07:56 | 51.21631 | -0.10108 | 9601 ft | 306 kts | 82° |
| 2026-04-15 07:56 | 51.22086 | -0.06774 | 10182 ft | 309 kts | 82° |
| 2026-04-15 07:56 | 51.22547 | -0.03327 | 10369 ft | 327 kts | 82° |
| 2026-04-15 07:56 | 51.23024 | 0.00324 | 10369 ft | 345 kts | 82° |
| 2026-04-15 07:57 | 51.23522 | 0.04170 | 10462 ft | 362 kts | 82° |
| 2026-04-15 07:57 | 51.24040 | 0.08199 | 10555 ft | 379 kts | 82° |
| 2026-04-15 07:57 | 51.24580 | 0.12392 | 10818 ft | 388 kts | 81° |
| 2026-04-15 07:57 | 51.25120 | 0.16631 | 11237 ft | 391 kts | 83° |
| 2026-04-15 07:58 | 51.25348 | 0.20891 | 11658 ft | 391 kts | 94° |
| 2026-04-15 07:58 | 51.25117 | 0.25209 | 12093 ft | 392 kts | 100° |
| 2026-04-15 07:58 | 51.24789 | 0.29541 | 12525 ft | 395 kts | 100° |
| 2026-04-15 07:58 | 51.24453 | 0.33907 | 12970 ft | 398 kts | 100° |
| 2026-04-15 07:59 | 51.24113 | 0.38312 | 13430 ft | 402 kts | 100° |
| 2026-04-15 07:59 | 51.23769 | 0.42766 | 13862 ft | 405 kts | 99° |
| 2026-04-15 07:59 | 51.23425 | 0.47236 | 14318 ft | 407 kts | 100° |
| 2026-04-15 07:59 | 51.23080 | 0.51730 | 14814 ft | 409 kts | 99° |
| 2026-04-15 08:00 | 51.22733 | 0.56249 | 15298 ft | 411 kts | 99° |
| 2026-04-15 08:00 | 51.22382 | 0.60810 | 15777 ft | 414 kts | 100° |
| 2026-04-15 08:00 | 51.22027 | 0.65371 | 16224 ft | 416 kts | 100° |
| 2026-04-15 08:00 | 51.21663 | 0.69967 | 16662 ft | 419 kts | 100° |
| 2026-04-15 08:01 | 51.21418 | 0.73039 | 16954 ft | 420 kts | 100° |
| 2026-04-15 08:01 | 51.21046 | 0.77666 | 17405 ft | 423 kts | 100° |
| 2026-04-15 08:01 | 51.20671 | 0.82331 | 17836 ft | 425 kts | 100° |
| 2026-04-15 08:01 | 51.20172 | 0.88557 | 18382 ft | 429 kts | 100° |
| 2026-04-15 08:02 | 51.19792 | 0.93286 | 18754 ft | 431 kts | 100° |
| 2026-04-15 08:02 | 51.19535 | 0.96484 | 19036 ft | 432 kts | 99° |
| 2026-04-15 08:02 | 51.19148 | 1.01260 | 19366 ft | 434 kts | 100° |
| 2026-04-15 08:02 | 51.18757 | 1.06046 | 19705 ft | 436 kts | 100° |
| 2026-04-15 08:03 | 51.18361 | 1.10841 | 20048 ft | 438 kts | 100° |
| 2026-04-15 08:03 | 51.17964 | 1.15612 | 20387 ft | 440 kts | 100° |
| 2026-04-15 08:03 | 51.17559 | 1.20459 | 20730 ft | 442 kts | 100° |
| 2026-04-15 08:03 | 51.17152 | 1.25325 | 21062 ft | 444 kts | 100° |
| 2026-04-15 08:04 | 51.16742 | 1.30213 | 21392 ft | 446 kts | 100° |
| 2026-04-15 08:04 | 51.16328 | 1.35120 | 21721 ft | 448 kts | 100° |
| 2026-04-15 08:04 | 51.15962 | 1.40063 | 22035 ft | 450 kts | 98° |
| 2026-04-15 08:04 | 51.15688 | 1.45046 | 22332 ft | 453 kts | 96° |
| 2026-04-15 08:05 | 51.15475 | 1.50048 | 22659 ft | 455 kts | 95° |
| 2026-04-15 08:05 | 51.15284 | 1.55084 | 22973 ft | 456 kts | 95° |
| 2026-04-15 08:05 | 51.15088 | 1.60166 | 23282 ft | 458 kts | 95° |
| 2026-04-15 08:05 | 51.14874 | 1.65224 | 23585 ft | 460 kts | 96° |
| 2026-04-15 08:06 | 51.14635 | 1.70323 | 23851 ft | 462 kts | 96° |
| 2026-04-15 08:06 | 51.14378 | 1.75429 | 24104 ft | 463 kts | 96° |
| 2026-04-15 08:06 | 51.14107 | 1.80552 | 24351 ft | 465 kts | 97° |
| 2026-04-15 08:06 | 51.13832 | 1.85696 | 24599 ft | 467 kts | 97° |
| 2026-04-15 08:07 | 51.13559 | 1.90858 | 24820 ft | 469 kts | 96° |
| 2026-04-15 08:07 | 51.13286 | 1.96037 | 25027 ft | 472 kts | 96° |
| 2026-04-15 08:07 | 51.13013 | 2.01265 | 25254 ft | 474 kts | 96° |
| 2026-04-15 08:07 | 51.12739 | 2.06503 | 25490 ft | 476 kts | 96° |
| 2026-04-15 08:08 | 51.12462 | 2.11758 | 25720 ft | 477 kts | 96° |
| 2026-04-15 08:08 | 51.12182 | 2.17031 | 25963 ft | 479 kts | 96° |
| 2026-04-15 08:08 | 51.11901 | 2.22264 | 26190 ft | 481 kts | 96° |
| 2026-04-15 08:08 | 51.11611 | 2.27582 | 26411 ft | 482 kts | 96° |
| 2026-04-15 08:09 | 51.11317 | 2.32905 | 26625 ft | 484 kts | 96° |
| 2026-04-15 08:09 | 51.11018 | 2.38244 | 26823 ft | 485 kts | 96° |
| 2026-04-15 08:09 | 51.10715 | 2.43595 | 27031 ft | 486 kts | 96° |
| 2026-04-15 08:09 | 51.10408 | 2.48947 | 27223 ft | 487 kts | 96° |
| 2026-04-15 08:10 | 51.10096 | 2.54337 | 27405 ft | 489 kts | 96° |
| 2026-04-15 08:10 | 51.09766 | 2.59727 | 27579 ft | 490 kts | 99° |
| 2026-04-15 08:10 | 51.08927 | 2.64942 | 27803 ft | 486 kts | 114° |
| 2026-04-15 08:10 | 51.07458 | 2.69763 | 28037 ft | 484 kts | 119° |
| 2026-04-15 08:11 | 51.05902 | 2.74508 | 28260 ft | 484 kts | 120° |
| 2026-04-15 08:11 | 51.04334 | 2.79235 | 28517 ft | 483 kts | 120° |
| 2026-04-15 08:11 | 51.02761 | 2.83953 | 28760 ft | 483 kts | 119° |
| 2026-04-15 08:11 | 51.01183 | 2.88676 | 28918 ft | 485 kts | 119° |
| 2026-04-15 08:12 | 50.99597 | 2.93426 | 29105 ft | 486 kts | 119° |
| 2026-04-15 08:12 | 50.98011 | 2.98165 | 29329 ft | 486 kts | 119° |
| 2026-04-15 08:12 | 50.96427 | 3.02904 | 29573 ft | 486 kts | 119° |
| 2026-04-15 08:12 | 50.94846 | 3.07641 | 29793 ft | 486 kts | 120° |
| 2026-04-15 08:13 | 50.93263 | 3.12373 | 30042 ft | 486 kts | 120° |
| 2026-04-15 08:13 | 50.91677 | 3.17097 | 30265 ft | 485 kts | 120° |
| 2026-04-15 08:13 | 50.90105 | 3.21765 | 30459 ft | 485 kts | 120° |
| 2026-04-15 08:13 | 50.88493 | 3.26539 | 30659 ft | 485 kts | 120° |
| 2026-04-15 08:14 | 50.86918 | 3.31190 | 30844 ft | 484 kts | 119° |
| 2026-04-15 08:14 | 50.85326 | 3.35886 | 31044 ft | 484 kts | 119° |
| 2026-04-15 08:14 | 50.83734 | 3.40577 | 31239 ft | 484 kts | 119° |
| 2026-04-15 08:14 | 50.82138 | 3.45274 | 31433 ft | 483 kts | 119° |
| 2026-04-15 08:15 | 50.80548 | 3.49943 | 31607 ft | 483 kts | 119° |
| 2026-04-15 08:15 | 50.78951 | 3.54619 | 31789 ft | 483 kts | 119° |
| 2026-04-15 08:15 | 50.77355 | 3.59292 | 31977 ft | 483 kts | 119° |
| 2026-04-15 08:15 | 50.75759 | 3.63961 | 32165 ft | 483 kts | 119° |
| 2026-04-15 08:16 | 50.74157 | 3.68635 | 32346 ft | 483 kts | 119° |
| 2026-04-15 08:16 | 50.72558 | 3.73296 | 32525 ft | 483 kts | 120° |
| 2026-04-15 08:16 | 50.70960 | 3.77945 | 32685 ft | 483 kts | 119° |
| 2026-04-15 08:16 | 50.69351 | 3.82617 | 32835 ft | 484 kts | 119° |
| 2026-04-15 08:17 | 50.67741 | 3.87277 | 32999 ft | 484 kts | 119° |
| 2026-04-15 08:17 | 50.66128 | 3.91936 | 33169 ft | 484 kts | 119° |
| 2026-04-15 08:17 | 50.64509 | 3.96595 | 33227 ft | 485 kts | 119° |
| 2026-04-15 08:18 | 50.61264 | 4.05921 | 33203 ft | 485 kts | 119° |
| 2026-04-15 08:18 | 50.58020 | 4.15230 | 33211 ft | 485 kts | 119° |
| 2026-04-15 08:19 | 50.54783 | 4.24467 | 33219 ft | 485 kts | 119° |
| 2026-04-15 08:19 | 50.51526 | 4.33737 | 33219 ft | 484 kts | 119° |
| 2026-04-15 08:20 | 50.48260 | 4.42995 | 33221 ft | 485 kts | 120° |
| 2026-04-15 08:20 | 50.44975 | 4.52254 | 33233 ft | 485 kts | 120° |
| 2026-04-15 08:21 | 50.41687 | 4.61512 | 33239 ft | 485 kts | 119° |
| 2026-04-15 08:21 | 50.38390 | 4.70759 | 33238 ft | 486 kts | 119° |
| 2026-04-15 08:22 | 50.35086 | 4.79992 | 33236 ft | 486 kts | 119° |
| 2026-04-15 08:22 | 50.31778 | 4.89197 | 33228 ft | 486 kts | 119° |
| 2026-04-15 08:23 | 50.28452 | 4.98404 | 33236 ft | 485 kts | 119° |
| 2026-04-15 08:23 | 50.25122 | 5.07591 | 33247 ft | 485 kts | 119° |
| 2026-04-15 08:24 | 50.21814 | 5.16713 | 33250 ft | 486 kts | 119° |
| 2026-04-15 08:24 | 50.18477 | 5.25874 | 33244 ft | 486 kts | 119° |
| 2026-04-15 08:25 | 50.15125 | 5.35030 | 33250 ft | 486 kts | 119° |
| 2026-04-15 08:25 | 50.11775 | 5.44167 | 33249 ft | 486 kts | 119° |
| 2026-04-15 08:26 | 50.08405 | 5.53305 | 33263 ft | 486 kts | 118° |
| 2026-04-15 08:26 | 50.05029 | 5.62420 | 33244 ft | 486 kts | 119° |
| 2026-04-15 08:27 | 50.01646 | 5.71531 | 33250 ft | 486 kts | 119° |
| 2026-04-15 08:27 | 49.98262 | 5.80635 | 33252 ft | 486 kts | 119° |
| 2026-04-15 08:28 | 49.94871 | 5.89729 | 33257 ft | 486 kts | 119° |
| 2026-04-15 08:28 | 49.91488 | 5.98743 | 33264 ft | 487 kts | 118° |
| 2026-04-15 08:29 | 49.88073 | 6.07814 | 33257 ft | 487 kts | 118° |
| 2026-04-15 08:29 | 49.84698 | 6.16901 | 33260 ft | 486 kts | 117° |
| 2026-04-15 08:30 | 49.81549 | 6.26176 | 33261 ft | 486 kts | 115° |
| 2026-04-15 08:30 | 49.78468 | 6.35499 | 33264 ft | 486 kts | 115° |
| 2026-04-15 08:31 | 49.75344 | 6.44773 | 33277 ft | 486 kts | 115° |
| 2026-04-15 08:31 | 49.72165 | 6.54000 | 33269 ft | 486 kts | 116° |
| 2026-04-15 08:32 | 49.68982 | 6.63219 | 33260 ft | 486 kts | 116° |
| 2026-04-15 08:32 | 49.65811 | 6.72434 | 33259 ft | 486 kts | 116° |
| 2026-04-15 08:33 | 49.62630 | 6.81669 | 33269 ft | 487 kts | 115° |
| 2026-04-15 08:33 | 49.59465 | 6.90814 | 33267 ft | 487 kts | 115° |
| 2026-04-15 08:34 | 49.56264 | 7.00002 | 33267 ft | 487 kts | 115° |
| 2026-04-15 08:34 | 49.53051 | 7.09201 | 33266 ft | 487 kts | 115° |
| 2026-04-15 08:35 | 49.49836 | 7.18391 | 33287 ft | 487 kts | 115° |
| 2026-04-15 08:35 | 49.46617 | 7.27550 | 33278 ft | 487 kts | 115° |
| 2026-04-15 08:36 | 49.43385 | 7.36694 | 33281 ft | 486 kts | 115° |
| 2026-04-15 08:36 | 49.40154 | 7.45815 | 33281 ft | 486 kts | 115° |
| 2026-04-15 08:37 | 49.36915 | 7.54937 | 33268 ft | 487 kts | 115° |
| 2026-04-15 08:37 | 49.33667 | 7.64058 | 33283 ft | 487 kts | 115° |
| 2026-04-15 08:38 | 49.30435 | 7.73101 | 33278 ft | 487 kts | 115° |
| 2026-04-15 08:38 | 49.27159 | 7.82188 | 33279 ft | 487 kts | 115° |
| 2026-04-15 08:39 | 49.23892 | 7.91257 | 33273 ft | 486 kts | 115° |
| 2026-04-15 08:39 | 49.20619 | 8.00316 | 33305 ft | 487 kts | 114° |
| 2026-04-15 08:40 | 49.17333 | 8.09355 | 33297 ft | 486 kts | 114° |
| 2026-04-15 08:40 | 49.14041 | 8.18373 | 33285 ft | 486 kts | 114° |
| 2026-04-15 08:41 | 49.10752 | 8.27374 | 33281 ft | 485 kts | 114° |
| 2026-04-15 08:41 | 49.07457 | 8.36364 | 33275 ft | 485 kts | 114° |
| 2026-04-15 08:42 | 49.04144 | 8.45341 | 33275 ft | 485 kts | 115° |
| 2026-04-15 08:42 | 49.00781 | 8.54260 | 33269 ft | 487 kts | 119° |
| 2026-04-15 08:43 | 48.96258 | 8.62052 | 33256 ft | 497 kts | 137° |
| 2026-04-15 08:43 | 48.90846 | 8.68605 | 33263 ft | 498 kts | 138° |
| 2026-04-15 08:44 | 48.85426 | 8.75159 | 33268 ft | 498 kts | 139° |
| 2026-04-15 08:44 | 48.80003 | 8.81693 | 33281 ft | 498 kts | 138° |
| 2026-04-15 08:45 | 48.74562 | 8.88222 | 33271 ft | 498 kts | 138° |
| 2026-04-15 08:45 | 48.69157 | 8.94675 | 33262 ft | 498 kts | 138° |
| 2026-04-15 08:46 | 48.63714 | 9.01151 | 33258 ft | 498 kts | 138° |
| 2026-04-15 08:46 | 48.58273 | 9.07612 | 33258 ft | 497 kts | 138° |
| 2026-04-15 08:47 | 48.52828 | 9.14066 | 33278 ft | 497 kts | 137° |
| 2026-04-15 08:47 | 48.48303 | 9.19422 | 33260 ft | 497 kts | 137° |
| 2026-04-15 08:48 | 48.42854 | 9.25847 | 33254 ft | 498 kts | 138° |
| 2026-04-15 08:48 | 48.37392 | 9.32258 | 33250 ft | 498 kts | 138° |
| 2026-04-15 08:49 | 48.31926 | 9.38664 | 33255 ft | 498 kts | 138° |
| 2026-04-15 08:49 | 48.26446 | 9.45065 | 33256 ft | 499 kts | 138° |
| 2026-04-15 08:50 | 48.21071 | 9.51618 | 33271 ft | 497 kts | 134° |
| 2026-04-15 08:50 | 48.15898 | 9.58456 | 33269 ft | 495 kts | 133° |
| 2026-04-15 08:51 | 48.10745 | 9.65304 | 33268 ft | 496 kts | 134° |
| 2026-04-15 08:51 | 48.05525 | 9.72058 | 33266 ft | 496 kts | 134° |
| 2026-04-15 08:52 | 48.00270 | 9.78755 | 33260 ft | 496 kts | 134° |
| 2026-04-15 08:52 | 47.95022 | 9.85444 | 33276 ft | 495 kts | 134° |
| 2026-04-15 08:53 | 47.89793 | 9.92124 | 33267 ft | 495 kts | 134° |
| 2026-04-15 08:53 | 47.84870 | 9.99103 | 33262 ft | 486 kts | 123° |
| 2026-04-15 08:54 | 47.81355 | 10.07540 | 33256 ft | 471 kts | 108° |
| 2026-04-15 08:54 | 47.78587 | 10.16289 | 33268 ft | 471 kts | 108° |
| 2026-04-15 08:55 | 47.75759 | 10.25098 | 33246 ft | 471 kts | 108° |
| 2026-04-15 08:55 | 47.72923 | 10.33864 | 33240 ft | 470 kts | 108° |
| 2026-04-15 08:56 | 47.70089 | 10.42618 | 33234 ft | 470 kts | 108° |
| 2026-04-15 08:56 | 47.67261 | 10.51353 | 33230 ft | 470 kts | 108° |
| 2026-04-15 08:57 | 47.64429 | 10.60083 | 33238 ft | 469 kts | 108° |
| 2026-04-15 08:57 | 47.61594 | 10.68785 | 33227 ft | 468 kts | 108° |
| 2026-04-15 08:58 | 47.58755 | 10.77462 | 33231 ft | 468 kts | 109° |
| 2026-04-15 08:58 | 47.54491 | 10.90456 | 33228 ft | 468 kts | 109° |
| 2026-04-15 08:59 | 47.51638 | 10.99101 | 33244 ft | 467 kts | 109° |
| 2026-04-15 08:59 | 47.48778 | 11.07726 | 33243 ft | 466 kts | 109° |
| 2026-04-15 09:00 | 47.45941 | 11.16264 | 33242 ft | 466 kts | 110° |
| 2026-04-15 09:00 | 47.43077 | 11.24860 | 33254 ft | 466 kts | 110° |
| 2026-04-15 09:01 | 47.40211 | 11.33425 | 33243 ft | 465 kts | 110° |
| 2026-04-15 09:01 | 47.37342 | 11.41978 | 33250 ft | 463 kts | 110° |
| 2026-04-15 09:02 | 47.34475 | 11.50496 | 33249 ft | 464 kts | 111° |
| 2026-04-15 09:02 | 47.31598 | 11.59008 | 33244 ft | 464 kts | 111° |
| 2026-04-15 09:03 | 47.28717 | 11.67502 | 33261 ft | 463 kts | 111° |
| 2026-04-15 09:03 | 47.25831 | 11.75989 | 33251 ft | 464 kts | 112° |
| 2026-04-15 09:04 | 47.22930 | 11.84481 | 33243 ft | 464 kts | 112° |
| 2026-04-15 09:04 | 47.19823 | 11.92814 | 33234 ft | 467 kts | 117° |
| 2026-04-15 09:05 | 47.16373 | 12.00909 | 33219 ft | 467 kts | 118° |
| 2026-04-15 09:05 | 47.12916 | 12.08998 | 33216 ft | 467 kts | 118° |
| 2026-04-15 09:06 | 47.09446 | 12.17069 | 33226 ft | 467 kts | 118° |
| 2026-04-15 09:06 | 47.05978 | 12.25127 | 33222 ft | 467 kts | 118° |
| 2026-04-15 09:07 | 47.02508 | 12.33162 | 33226 ft | 467 kts | 118° |
| 2026-04-15 09:07 | 46.99027 | 12.41203 | 33240 ft | 467 kts | 119° |
| 2026-04-15 09:08 | 46.95540 | 12.49236 | 33242 ft | 466 kts | 119° |
| 2026-04-15 09:08 | 46.92079 | 12.57200 | 33230 ft | 466 kts | 119° |
| 2026-04-15 09:09 | 46.88572 | 12.65236 | 33221 ft | 466 kts | 120° |
| 2026-04-15 09:09 | 46.85078 | 12.73201 | 33220 ft | 466 kts | 120° |
| 2026-04-15 09:10 | 46.81607 | 12.81107 | 33219 ft | 464 kts | 120° |
| 2026-04-15 09:10 | 46.78125 | 12.89024 | 33213 ft | 464 kts | 120° |
| 2026-04-15 09:11 | 46.74629 | 12.96921 | 33216 ft | 463 kts | 120° |
| 2026-04-15 09:11 | 46.71136 | 13.04806 | 33210 ft | 463 kts | 120° |
| 2026-04-15 09:12 | 46.67648 | 13.12678 | 33220 ft | 462 kts | 121° |
| 2026-04-15 09:12 | 46.64151 | 13.20520 | 33215 ft | 461 kts | 121° |
| 2026-04-15 09:13 | 46.60643 | 13.28361 | 33209 ft | 461 kts | 122° |
| 2026-04-15 09:13 | 46.57153 | 13.36156 | 33219 ft | 460 kts | 122° |
| 2026-04-15 09:14 | 46.53549 | 13.43862 | 33226 ft | 460 kts | 125° |
| 2026-04-15 09:14 | 46.49761 | 13.51341 | 33219 ft | 460 kts | 126° |
| 2026-04-15 09:15 | 46.45937 | 13.58794 | 33212 ft | 461 kts | 126° |
| 2026-04-15 09:15 | 46.42150 | 13.66286 | 33227 ft | 460 kts | 126° |
| 2026-04-15 09:16 | 46.38410 | 13.73742 | 33221 ft | 461 kts | 126° |
| 2026-04-15 09:16 | 46.34632 | 13.81243 | 33233 ft | 461 kts | 127° |
| 2026-04-15 09:17 | 46.30848 | 13.88724 | 33230 ft | 460 kts | 127° |
| 2026-04-15 09:17 | 46.27059 | 13.96189 | 33235 ft | 460 kts | 128° |
| 2026-04-15 09:18 | 46.23264 | 14.03636 | 33246 ft | 460 kts | 127° |
| 2026-04-15 09:18 | 46.19467 | 14.11072 | 33257 ft | 460 kts | 128° |
| 2026-04-15 09:19 | 46.15672 | 14.18493 | 33265 ft | 460 kts | 128° |
| 2026-04-15 09:19 | 46.11867 | 14.25896 | 33265 ft | 459 kts | 128° |
| 2026-04-15 09:20 | 46.08059 | 14.33292 | 33267 ft | 459 kts | 128° |
| 2026-04-15 09:20 | 46.04278 | 14.40627 | 33258 ft | 459 kts | 130° |
| 2026-04-15 09:21 | 46.00463 | 14.48007 | 33257 ft | 459 kts | 129° |
| 2026-04-15 09:21 | 45.96646 | 14.55373 | 33266 ft | 460 kts | 129° |
| 2026-04-15 09:22 | 45.92818 | 14.62731 | 33262 ft | 459 kts | 130° |
| 2026-04-15 09:22 | 45.88983 | 14.70066 | 33264 ft | 459 kts | 130° |
| 2026-04-15 09:23 | 45.85149 | 14.77394 | 33262 ft | 460 kts | 130° |
| 2026-04-15 09:23 | 45.81310 | 14.84735 | 33263 ft | 460 kts | 130° |
| 2026-04-15 09:24 | 45.77460 | 14.92069 | 33262 ft | 460 kts | 130° |
| 2026-04-15 09:24 | 45.73603 | 14.99375 | 33262 ft | 460 kts | 130° |
| 2026-04-15 09:25 | 45.69741 | 15.06674 | 33257 ft | 460 kts | 130° |
| 2026-04-15 09:25 | 45.65881 | 15.13975 | 33262 ft | 460 kts | 130° |
| 2026-04-15 09:26 | 45.62018 | 15.21266 | 33263 ft | 460 kts | 130° |
| 2026-04-15 09:26 | 45.58150 | 15.28529 | 33263 ft | 460 kts | 130° |
| 2026-04-15 09:27 | 45.54167 | 15.35650 | 33261 ft | 458 kts | 133° |
| 2026-04-15 09:27 | 45.50006 | 15.42549 | 33257 ft | 458 kts | 134° |
| 2026-04-15 09:28 | 45.45863 | 15.49349 | 33258 ft | 457 kts | 133° |
| 2026-04-15 09:28 | 45.41726 | 15.56237 | 33259 ft | 457 kts | 133° |
| 2026-04-15 09:29 | 45.37613 | 15.63146 | 33254 ft | 457 kts | 133° |
| 2026-04-15 09:29 | 45.33505 | 15.70037 | 33242 ft | 456 kts | 133° |
| 2026-04-15 09:30 | 45.29389 | 15.76896 | 33259 ft | 456 kts | 133° |
| 2026-04-15 09:30 | 45.25263 | 15.83721 | 33236 ft | 455 kts | 133° |
| 2026-04-15 09:31 | 45.21142 | 15.90529 | 33243 ft | 455 kts | 132° |
| 2026-04-15 09:31 | 45.17835 | 15.96327 | 33242 ft | 454 kts | 130° |
| 2026-04-15 09:32 | 45.13972 | 16.03412 | 33249 ft | 454 kts | 130° |
| 2026-04-15 09:32 | 45.10102 | 16.10477 | 33244 ft | 454 kts | 130° |
| 2026-04-15 09:33 | 45.06176 | 16.17481 | 33233 ft | 453 kts | 131° |
| 2026-04-15 09:33 | 45.02242 | 16.24440 | 33246 ft | 453 kts | 131° |
| 2026-04-15 09:34 | 44.98301 | 16.31401 | 33235 ft | 453 kts | 132° |
| 2026-04-15 09:34 | 44.94377 | 16.38344 | 33231 ft | 452 kts | 132° |
| 2026-04-15 09:35 | 44.90479 | 16.45222 | 33242 ft | 451 kts | 132° |
| 2026-04-15 09:35 | 44.86556 | 16.52129 | 33232 ft | 451 kts | 132° |
| 2026-04-15 09:36 | 44.82634 | 16.59016 | 33229 ft | 450 kts | 132° |
| 2026-04-15 09:36 | 44.78714 | 16.65874 | 33228 ft | 450 kts | 132° |
| 2026-04-15 09:37 | 44.74793 | 16.72734 | 33228 ft | 450 kts | 132° |
| 2026-04-15 09:37 | 44.70866 | 16.79579 | 33222 ft | 449 kts | 132° |
| 2026-04-15 09:38 | 44.66935 | 16.86407 | 33216 ft | 449 kts | 132° |
| 2026-04-15 09:38 | 44.62996 | 16.93233 | 33213 ft | 450 kts | 132° |
| 2026-04-15 09:39 | 44.59050 | 17.00072 | 33210 ft | 450 kts | 132° |
| 2026-04-15 09:39 | 44.55099 | 17.06897 | 33216 ft | 451 kts | 132° |
| 2026-04-15 09:40 | 44.51138 | 17.13714 | 33210 ft | 451 kts | 132° |
| 2026-04-15 09:40 | 44.47171 | 17.20525 | 33204 ft | 452 kts | 131° |
| 2026-04-15 09:41 | 44.43205 | 17.27329 | 33197 ft | 451 kts | 131° |
| 2026-04-15 09:41 | 44.39219 | 17.34139 | 33198 ft | 451 kts | 131° |
| 2026-04-15 09:42 | 44.35242 | 17.40916 | 33190 ft | 451 kts | 132° |
| 2026-04-15 09:42 | 44.31284 | 17.47655 | 33183 ft | 451 kts | 131° |
| 2026-04-15 09:43 | 44.27307 | 17.54420 | 33191 ft | 451 kts | 131° |
| 2026-04-15 09:43 | 44.23324 | 17.61171 | 33181 ft | 450 kts | 132° |
| 2026-04-15 09:44 | 44.19333 | 17.67903 | 33183 ft | 450 kts | 131° |
| 2026-04-15 09:44 | 44.15345 | 17.74622 | 33176 ft | 450 kts | 131° |
| 2026-04-15 09:45 | 44.11362 | 17.81347 | 33175 ft | 449 kts | 131° |
| 2026-04-15 09:45 | 44.07376 | 17.88040 | 33177 ft | 449 kts | 131° |
| 2026-04-15 09:46 | 44.03400 | 17.94679 | 33180 ft | 449 kts | 132° |
| 2026-04-15 09:46 | 43.99402 | 18.01349 | 33174 ft | 449 kts | 131° |
| 2026-04-15 09:47 | 43.95397 | 18.08024 | 33170 ft | 450 kts | 132° |
| 2026-04-15 09:47 | 43.91384 | 18.14701 | 33171 ft | 451 kts | 132° |
| 2026-04-15 09:48 | 43.87367 | 18.21370 | 33182 ft | 450 kts | 132° |
| 2026-04-15 09:48 | 43.83345 | 18.28019 | 33184 ft | 450 kts | 132° |
| 2026-04-15 09:49 | 43.79327 | 18.34653 | 33184 ft | 450 kts | 132° |
| 2026-04-15 09:49 | 43.75297 | 18.41290 | 33184 ft | 450 kts | 132° |
| 2026-04-15 09:50 | 43.71264 | 18.47919 | 33178 ft | 450 kts | 132° |
| 2026-04-15 09:50 | 43.67238 | 18.54537 | 33171 ft | 450 kts | 132° |
| 2026-04-15 09:51 | 43.63199 | 18.61140 | 33156 ft | 450 kts | 133° |
| 2026-04-15 09:51 | 43.59178 | 18.67691 | 33142 ft | 450 kts | 133° |
| 2026-04-15 09:52 | 43.55122 | 18.74292 | 33143 ft | 451 kts | 133° |
| 2026-04-15 09:52 | 43.51070 | 18.80883 | 33146 ft | 451 kts | 133° |
| 2026-04-15 09:53 | 43.47008 | 18.87467 | 33138 ft | 450 kts | 133° |
| 2026-04-15 09:53 | 43.42949 | 18.94026 | 33135 ft | 450 kts | 133° |
| 2026-04-15 09:54 | 43.38888 | 19.00594 | 33137 ft | 450 kts | 133° |
| 2026-04-15 09:54 | 43.34829 | 19.07144 | 33141 ft | 449 kts | 133° |
| 2026-04-15 09:55 | 43.30770 | 19.13670 | 33141 ft | 449 kts | 133° |
| 2026-04-15 09:55 | 43.26713 | 19.20164 | 33142 ft | 448 kts | 133° |
| 2026-04-15 09:56 | 43.22661 | 19.26644 | 33136 ft | 447 kts | 133° |
| 2026-04-15 09:57 | 43.16570 | 19.36337 | 33132 ft | 447 kts | 133° |
| 2026-04-15 09:57 | 43.12544 | 19.42743 | 33130 ft | 447 kts | 133° |
| 2026-04-15 09:58 | 43.08487 | 19.49185 | 33118 ft | 447 kts | 133° |
| 2026-04-15 09:58 | 43.04420 | 19.55617 | 33116 ft | 447 kts | 133° |
| 2026-04-15 09:59 | 43.00347 | 19.62051 | 33116 ft | 447 kts | 133° |
| 2026-04-15 09:59 | 42.96270 | 19.68485 | 33117 ft | 447 kts | 133° |
| 2026-04-15 10:00 | 42.92198 | 19.74904 | 33119 ft | 447 kts | 133° |
| 2026-04-15 10:00 | 42.88118 | 19.81310 | 33124 ft | 448 kts | 133° |
| 2026-04-15 10:01 | 42.84027 | 19.87719 | 33128 ft | 448 kts | 133° |
| 2026-04-15 10:01 | 42.79928 | 19.94129 | 33143 ft | 448 kts | 133° |
| 2026-04-15 10:02 | 42.75832 | 20.00509 | 33140 ft | 448 kts | 133° |
| 2026-04-15 10:02 | 42.71779 | 20.06952 | 33152 ft | 448 kts | 132° |
| 2026-04-15 10:03 | 42.67841 | 20.13524 | 33150 ft | 448 kts | 131° |
| 2026-04-15 10:03 | 42.63913 | 20.20104 | 33147 ft | 448 kts | 131° |
| 2026-04-15 10:04 | 42.59959 | 20.26641 | 33163 ft | 448 kts | 132° |
| 2026-04-15 10:04 | 42.55981 | 20.33146 | 33164 ft | 448 kts | 132° |
| 2026-04-15 10:05 | 42.52023 | 20.39607 | 33171 ft | 448 kts | 132° |
| 2026-04-15 10:05 | 42.48042 | 20.46113 | 33174 ft | 448 kts | 132° |
| 2026-04-15 10:06 | 42.44058 | 20.52598 | 33157 ft | 448 kts | 133° |
| 2026-04-15 10:06 | 42.40069 | 20.59090 | 33157 ft | 448 kts | 133° |
| 2026-04-15 10:07 | 42.36079 | 20.65577 | 33160 ft | 448 kts | 133° |
| 2026-04-15 10:07 | 42.32083 | 20.72046 | 33162 ft | 448 kts | 133° |
| 2026-04-15 10:08 | 42.28079 | 20.78517 | 33170 ft | 448 kts | 134° |
| 2026-04-15 10:08 | 42.24097 | 20.84927 | 33165 ft | 448 kts | 134° |
| 2026-04-15 10:09 | 42.20098 | 20.91373 | 33171 ft | 447 kts | 134° |
| 2026-04-15 10:09 | 42.16090 | 20.97808 | 33174 ft | 448 kts | 134° |
| 2026-04-15 10:10 | 42.11836 | 21.03870 | 33182 ft | 441 kts | 146° |
| 2026-04-15 10:10 | 42.06605 | 21.07946 | 33177 ft | 431 kts | 163° |
| 2026-04-15 10:11 | 42.01010 | 21.10805 | 33183 ft | 430 kts | 163° |
| 2026-04-15 10:11 | 41.95422 | 21.13663 | 33187 ft | 429 kts | 163° |
| 2026-04-15 10:12 | 41.89829 | 21.16527 | 33173 ft | 430 kts | 163° |
| 2026-04-15 10:12 | 41.84231 | 21.19387 | 33168 ft | 431 kts | 163° |
| 2026-04-15 10:13 | 41.78619 | 21.22236 | 33180 ft | 431 kts | 163° |
| 2026-04-15 10:13 | 41.73041 | 21.25060 | 33185 ft | 431 kts | 163° |
| 2026-04-15 10:14 | 41.67434 | 21.27905 | 33187 ft | 430 kts | 163° |
| 2026-04-15 10:14 | 41.61827 | 21.30749 | 33192 ft | 431 kts | 163° |
| 2026-04-15 10:15 | 41.56223 | 21.33574 | 33198 ft | 430 kts | 163° |
| 2026-04-15 10:15 | 41.50611 | 21.36397 | 33202 ft | 430 kts | 163° |
| 2026-04-15 10:16 | 41.45009 | 21.39220 | 33201 ft | 430 kts | 163° |
| 2026-04-15 10:16 | 41.39419 | 21.42040 | 33206 ft | 430 kts | 163° |
| 2026-04-15 10:17 | 41.34945 | 21.44977 | 33188 ft | 437 kts | 149° |
| 2026-04-15 10:17 | 41.30550 | 21.50651 | 33194 ft | 448 kts | 130° |
| 2026-04-15 10:18 | 41.26255 | 21.58429 | 33198 ft | 449 kts | 131° |
| 2026-04-15 10:18 | 41.23136 | 21.64026 | 33197 ft | 449 kts | 131° |
| 2026-04-15 10:19 | 41.19407 | 21.70693 | 32470 ft | 451 kts | 131° |
| 2026-04-15 10:19 | 41.17550 | 21.74013 | 31581 ft | 455 kts | 130° |
| 2026-04-15 10:19 | 41.15661 | 21.77390 | 30750 ft | 457 kts | 130° |
| 2026-04-15 10:19 | 41.13759 | 21.80792 | 29719 ft | 461 kts | 130° |
| 2026-04-15 10:20 | 41.11820 | 21.84262 | 28756 ft | 463 kts | 130° |
| 2026-04-15 10:20 | 41.09926 | 21.87650 | 27795 ft | 465 kts | 129° |
| 2026-04-15 10:20 | 41.08018 | 21.91063 | 27287 ft | 456 kts | 129° |
| 2026-04-15 10:20 | 41.06137 | 21.94419 | 26655 ft | 451 kts | 129° |
| 2026-04-15 10:21 | 41.04263 | 21.97731 | 26042 ft | 445 kts | 130° |
| 2026-04-15 10:21 | 41.02411 | 22.00981 | 25439 ft | 440 kts | 130° |
| 2026-04-15 10:21 | 41.00569 | 22.04196 | 24850 ft | 436 kts | 129° |
| 2026-04-15 10:21 | 40.98741 | 22.07385 | 24259 ft | 433 kts | 130° |
| 2026-04-15 10:22 | 40.96928 | 22.10556 | 23656 ft | 429 kts | 129° |
| 2026-04-15 10:22 | 40.95139 | 22.13687 | 23033 ft | 423 kts | 129° |
| 2026-04-15 10:22 | 40.93376 | 22.16768 | 22485 ft | 419 kts | 129° |
| 2026-04-15 10:22 | 40.91619 | 22.19839 | 21900 ft | 416 kts | 129° |
| 2026-04-15 10:23 | 40.89881 | 22.22880 | 21355 ft | 413 kts | 129° |
| 2026-04-15 10:23 | 40.88155 | 22.25899 | 20810 ft | 410 kts | 129° |
| 2026-04-15 10:23 | 40.86449 | 22.28875 | 20294 ft | 405 kts | 129° |
| 2026-04-15 10:23 | 40.84749 | 22.31834 | 19786 ft | 400 kts | 129° |
| 2026-04-15 10:24 | 40.83076 | 22.34744 | 19296 ft | 396 kts | 129° |
| 2026-04-15 10:24 | 40.81421 | 22.37621 | 18815 ft | 391 kts | 129° |
| 2026-04-15 10:24 | 40.79785 | 22.40460 | 18342 ft | 386 kts | 129° |
| 2026-04-15 10:24 | 40.78166 | 22.43265 | 17859 ft | 382 kts | 129° |
| 2026-04-15 10:25 | 40.76606 | 22.46026 | 17397 ft | 379 kts | 128° |
| 2026-04-15 10:25 | 40.75135 | 22.48881 | 16935 ft | 374 kts | 125° |
| 2026-04-15 10:25 | 40.73744 | 22.51769 | 16469 ft | 372 kts | 124° |
| 2026-04-15 10:25 | 40.72391 | 22.54664 | 15999 ft | 369 kts | 124° |
| 2026-04-15 10:26 | 40.71052 | 22.57538 | 15515 ft | 366 kts | 124° |
| 2026-04-15 10:26 | 40.69714 | 22.60380 | 15033 ft | 364 kts | 124° |
| 2026-04-15 10:26 | 40.68369 | 22.63192 | 14526 ft | 361 kts | 125° |
| 2026-04-15 10:26 | 40.66829 | 22.65753 | 14025 ft | 353 kts | 141° |
| 2026-04-15 10:27 | 40.64815 | 22.67517 | 13408 ft | 346 kts | 159° |
| 2026-04-15 10:27 | 40.62517 | 22.68341 | 12764 ft | 340 kts | 177° |
| 2026-04-15 10:27 | 40.60208 | 22.68192 | 12321 ft | 330 kts | 193° |
| 2026-04-15 10:27 | 40.58016 | 22.67391 | 11839 ft | 325 kts | 196° |
| 2026-04-15 10:28 | 40.55820 | 22.66742 | 11351 ft | 322 kts | 192° |
| 2026-04-15 10:28 | 40.53596 | 22.66367 | 10797 ft | 316 kts | 186° |
| 2026-04-15 10:28 | 40.51502 | 22.66300 | 10577 ft | 288 kts | 181° |
| 2026-04-15 10:28 | 40.49532 | 22.66462 | 10243 ft | 280 kts | 176° |
| 2026-04-15 10:29 | 40.47623 | 22.66826 | 9985 ft | 275 kts | 172° |
| 2026-04-15 10:29 | 40.45765 | 22.67381 | 9835 ft | 274 kts | 168° |
| 2026-04-15 10:29 | 40.43942 | 22.68134 | 9698 ft | 275 kts | 163° |
| 2026-04-15 10:29 | 40.42191 | 22.69072 | 9574 ft | 276 kts | 159° |
| 2026-04-15 10:30 | 40.40475 | 22.70213 | 9442 ft | 277 kts | 154° |
| 2026-04-15 10:30 | 40.38832 | 22.71540 | 9311 ft | 278 kts | 149° |
| 2026-04-15 10:30 | 40.37276 | 22.73047 | 9172 ft | 279 kts | 144° |
| 2026-04-15 10:30 | 40.35813 | 22.74722 | 8942 ft | 280 kts | 140° |
| 2026-04-15 10:31 | 40.34461 | 22.76548 | 8592 ft | 278 kts | 135° |
| 2026-04-15 10:31 | 40.33238 | 22.78510 | 8219 ft | 278 kts | 130° |
| 2026-04-15 10:31 | 40.32145 | 22.80589 | 7855 ft | 277 kts | 125° |
| 2026-04-15 10:31 | 40.31186 | 22.82770 | 7495 ft | 276 kts | 121° |
| 2026-04-15 10:32 | 40.30372 | 22.85038 | 7122 ft | 275 kts | 116° |
| 2026-04-15 10:32 | 40.29703 | 22.87386 | 6761 ft | 275 kts | 111° |
| 2026-04-15 10:32 | 40.29181 | 22.89801 | 6382 ft | 274 kts | 106° |
| 2026-04-15 10:32 | 40.28810 | 22.92239 | 6005 ft | 271 kts | 101° |
| 2026-04-15 10:33 | 40.28598 | 22.94656 | 5653 ft | 263 kts | 96° |
| 2026-04-15 10:33 | 40.28536 | 22.97016 | 5311 ft | 256 kts | 92° |
| 2026-04-15 10:33 | 40.28606 | 22.99313 | 4969 ft | 250 kts | 88° |
| 2026-04-15 10:33 | 40.28807 | 23.01576 | 4597 ft | 251 kts | 78° |
| 2026-04-15 10:34 | 40.29666 | 23.03532 | 4245 ft | 253 kts | 40° |
| 2026-04-15 10:34 | 40.31245 | 23.04390 | 3956 ft | 247 kts | 2° |
| 2026-04-15 10:34 | 40.32890 | 23.04059 | 3658 ft | 241 kts | 342° |
| 2026-04-15 10:34 | 40.34451 | 23.03319 | 3348 ft | 236 kts | 338° |
| 2026-04-15 10:35 | 40.35966 | 23.02549 | 3031 ft | 231 kts | 339° |
| 2026-04-15 10:35 | 40.37459 | 23.01857 | 2731 ft | 224 kts | 341° |
| 2026-04-15 10:35 | 40.38915 | 23.01262 | 2449 ft | 211 kts | 343° |
| 2026-04-15 10:35 | 40.40271 | 23.00762 | 2190 ft | 192 kts | 345° |
| 2026-04-15 10:36 | 40.41502 | 23.00342 | 1925 ft | 173 kts | 346° |
| 2026-04-15 10:36 | 40.42620 | 22.99976 | 1717 ft | 159 kts | 346° |
| 2026-04-15 10:36 | 40.43674 | 22.99642 | 1488 ft | 153 kts | 347° |
| 2026-04-15 10:36 | 40.44707 | 22.99344 | 1337 ft | 151 kts | 349° |
| 2026-04-15 10:37 | 40.45735 | 22.99056 | 1184 ft | 151 kts | 347° |
| 2026-04-15 10:37 | 40.46751 | 22.98745 | 1011 ft | 149 kts | 347° |
| 2026-04-15 10:37 | 40.47754 | 22.98432 | 839 ft | 147 kts | 346° |
| 2026-04-15 10:37 | 40.48749 | 22.98118 | 633 ft | 146 kts | 345° |
| 2026-04-15 10:38 | 40.49722 | 22.97807 | 378 ft | 145 kts | 345° |
| 2026-04-15 10:38 | 40.50714 | 22.97492 | 133 ft | 144 kts | 345° |
| 2026-04-15 10:38 | 40.51649 | 22.97198 | 31 ft | 128 kts | 345° |
| 2026-04-15 10:38 | 40.52265 | 22.97007 | 28 ft | 56 kts | 347° |
| 2026-04-15 10:39 | 40.52581 | 22.96903 | 29 ft | 30 kts | 347° |
| 2026-04-15 10:39 | 40.52680 | 22.96953 | 30 ft | 15 kts | 70° |
| 2026-04-15 10:39 | 40.52681 | 22.97045 | 29 ft | 10 kts | 124° |
| 2026-04-15 10:39 | 40.52613 | 22.97075 | 29 ft | 11 kts | 166° |
| 2026-04-15 10:40 | 40.52531 | 22.97102 | 29 ft | 13 kts | 166° |
| 2026-04-15 10:40 | 40.52440 | 22.97131 | 28 ft | 14 kts | 167° |
| 2026-04-15 10:40 | 40.52381 | 22.97185 | 28 ft | 11 kts | 103° |
| 2026-04-15 10:40 | 40.52395 | 22.97288 | 28 ft | 12 kts | 74° |
| 2026-04-15 10:41 | 40.52375 | 22.97387 | 28 ft | 13 kts | 134° |
| 2026-04-15 10:41 | 40.52324 | 22.97456 | 28 ft | 5 kts | 134° |
| 2026-04-15 10:41 | 40.52317 | 22.97495 | 28 ft | 5 kts | 63° |
| 2026-04-15 10:41 | 40.52339 | 22.97524 | 28 ft | 3 kts | 45° |
| 2026-04-15 10:42 | 40.52344 | 22.97530 | 28 ft | 0 kts | 45° |